Bodega Marine Reserve, California Weather observations

Data are for 10 minute period ending at time listed.
 Day   Time   Solar   Ave.   Ave.  Ave.  Vector  Max.   Baro.   Total    
  of    of     Rad.   Air    Rel.  Wind   Wind   Wind  Press.  Precip.   
Year   Day            Temp.  Hum.  Speed  Dir.   Gust                    
2015   (PST)  Kw/m2    F      %     mph   deg.    mph    mb.     in.     
-------------------------------------------------------------------------
 239   12:10   0.82   65.0    73   13.2   305    16.6   1015.6    0.00 
 239   12:20   0.83   64.4    74   14.8   303    18.0   1015.6    0.00 
 239   12:30   0.83   64.7    74   15.1   302    19.1   1015.6    0.00 
 239   12:40   0.74   64.3    75   15.1   304    19.2   1015.2    0.00 
 239   12:50   0.80   64.1    75   14.9   303    18.5   1015.2    0.00 
 239   13:00   0.80   64.3    75   16.6   301    21.6   1015.2    0.00 
 239   13:10   0.79   64.0    75   17.2   304    22.9   1015.2    0.00 
 239   13:20   0.81   64.3    74   17.6   305    23.3   1015.2    0.00 
 239   13:30   0.71   64.8    74   16.1   304    21.3   1015.2    0.00 
 239   13:40   0.69   64.6    75   16.3   303    20.4   1015.2    0.00 
 239   13:50   0.71   64.9    74   15.7   303    19.8   1014.9    0.00 
 239   14:00   0.66   65.2    73   15.7   303    19.5   1014.9    0.00 
 239   14:10   0.65   65.2    73   15.2   305    20.2   1014.9    0.00 
 239   14:20   0.66   66.6    69   16.0   304    21.3   1014.9    0.00 
 239   14:30   0.72   66.3    70   17.4   303    21.9   1014.9    0.00 
 239   14:40   0.68   66.2    71   17.1   305    21.9   1014.9    0.00 
 239   14:50   0.62   65.5    72   19.0   305    23.2   1014.6    0.00 
 239   15:00   0.41   65.5    71   17.9   297    23.5   1014.6    0.00 
 239   15:10   0.56   65.4    70   18.7   304    22.6   1014.2    0.00 
 239   15:20   0.60   65.8    68   17.0   304    21.9   1014.2    0.00 
 239   15:30   0.59   66.8    65   17.6   298    22.8   1013.9    0.00 
 239   15:40   0.54   66.6    65   16.2   309    22.3   1013.9    0.00 
 239   15:50   0.53   66.7    65   14.7   310    20.8   1013.9    0.00 
 239   16:00   0.23   66.5    66   16.5   309    21.5   1013.9    0.00 
 239   16:10   0.33   66.3    66   16.0   310    20.3   1013.5    0.00 
 239   16:20   0.34   66.1    66   15.8   314    21.3   1013.5    0.00 
 239   16:30   0.22   64.4    70   13.3   314    19.6   1013.5    0.00 
 239   16:40   0.30   64.9    70   14.1   310    19.3   1013.5    0.00 
 239   16:50   0.29   65.0    69   15.9   309    22.3   1013.2    0.00 
 239   17:00   0.32   65.6    65   16.8   314    22.1   1013.2    0.00 
 239   17:10   0.24   65.3    66   15.6   313    20.1   1013.2    0.00 
 239   17:20   0.10   64.4    68   14.6   316    19.0   1012.9    0.00 
 239   17:30   0.07   64.0    68   14.9   314    20.4   1012.9    0.00 
 239   17:40   0.07   64.1    68   16.9   309    22.9   1012.9    0.00 
 239   17:50   0.12   63.5    70   18.3   304    24.2   1012.9    0.00 
 239   18:00   0.12   63.4    70   18.3   317    24.5   1012.5    0.00 
 239   18:10   0.10   63.5    70   17.0   317    22.9   1012.5    0.00 
 239   18:20   0.06   63.2    70   17.4   311    23.2   1012.5    0.00 
 239   18:30   0.02   63.0    70   16.9   320    22.5   1012.5    0.00 
 239   18:40   0.01   63.0    69   16.9   321    23.5   1012.2    0.00 
 239   18:50   0.00   63.0    68   20.8   304    26.0   1011.9    0.00 
 239   19:00   0.00   62.7    70   16.9   316    23.3   1012.2    0.00 
 239   19:10   0.00   62.4    72   16.2   320    20.8   1012.2    0.00 
 239   19:20   0.00   61.8    73   16.2   311    21.1   1012.2    0.00 
 239   19:30   0.00   61.8    73   14.7   318    19.2   1012.2    0.00 
 239   19:40   0.00   61.7    72   15.2   318    19.3   1012.2    0.00 
 239   19:50   0.00   61.6    73   16.3   315    21.3   1012.2    0.00 
 239   20:00   0.00   61.4    75   15.8   312    20.5   1012.2    0.00 
 239   20:10   0.00   61.0    76   16.1   312    21.1   1012.2    0.00 
 239   20:20   0.00   60.9    77   16.0   314    20.8   1012.5    0.00 
 239   20:30   0.00   60.9    77   15.3   316    20.0   1012.5    0.00 
 239   20:40   0.00   61.0    77   15.8   318    20.7   1012.5    0.00 
 239   20:50   0.00   61.1    76   15.7   321    19.9   1012.9    0.00 
 239   21:00   0.00   60.9    76   14.9   315    19.3   1012.5    0.00 
 239   21:10   0.00   60.7    78   15.9   309    20.0   1012.5    0.00 
 239   21:20   0.00   60.9    78   16.7   314    20.9   1012.5    0.00 
 239   21:30   0.00   60.9    78   15.2   321    19.0   1012.5    0.00 
 239   21:40   0.00   60.7    79   14.8   321    18.3   1012.2    0.00 
 239   21:50   0.00   60.5    79   15.1   318    18.6   1012.2    0.00 
 239   22:00   0.00   60.6    79   15.4   314    19.7   1011.9    0.00 
 239   22:10   0.00   60.4    80   13.6   311    16.9   1011.9    0.00 
 239   22:20   0.00   60.3    80   12.2   314    16.1   1011.9    0.00 
 239   22:30   0.00   60.8    78   11.5   312    15.9   1011.9    0.00 
 239   22:40   0.00   61.4    76   10.6   317    15.2   1011.9    0.00 
 239   22:50   0.00   62.5    72   13.8   308    18.4   1011.9    0.00 
 239   23:00   0.00   62.8    72   14.6   306    20.8   1011.9    0.00 
 239   23:10   0.00   62.4    75   16.0   297    20.0   1011.9    0.00 
 239   23:20   0.00   61.6    79   16.3   300    21.1   1011.9    0.00 
 239   23:30   0.00   61.2    81   14.4   303    20.5   1011.9    0.00 
 239   23:40   0.00   60.8    83   12.9   304    16.5   1011.9    0.00 
 239   23:50   0.00   60.7    83   12.3   301    15.9   1011.9    0.00 
 240    0:00   0.00   60.5    84   12.9   294    15.9   1011.9    0.00 
 240    0:10   0.00   60.0    85   12.0   290    15.1   1011.9    0.00 
 240    0:20   0.00   59.6    86   11.4   293    15.6   1011.9    0.00 
 240    0:30   0.00   59.5    86   10.0   304    14.6   1011.9    0.00 
 240    0:40   0.00   59.3    86    6.9   298    11.2   1011.9    0.00 
 240    0:50   0.00   59.0    87    5.1   299    10.2   1011.5    0.00 
 240    1:00   0.00   59.0    87    1.8   299     5.0   1011.5    0.00 
 240    1:10   0.00   58.8    87    0.9   355     2.8   1011.5    0.00 
 240    1:20   0.00   58.6    87    1.2   272     3.0   1011.2    0.00 
 240    1:30   0.00   58.6    88    3.1   264     4.8   1011.2    0.00 
 240    1:40   0.00   58.9    88    1.0   244     1.8   1011.2    0.00 
 240    1:50   0.00   58.5    87    1.1   143     3.6   1011.2    0.00 
 240    2:00   0.00   58.6    88    3.7   139     4.4   1011.2    0.00 
 240    2:10   0.00   59.3    88    5.7   127     7.7   1010.8    0.00 
 240    2:20   0.00   59.6    88    6.1   139     7.5   1010.8    0.00 
 240    2:30   0.00   59.6    89    6.1   141     7.2   1010.8    0.00 
 240    2:40   0.00   59.7    89    6.4   143     8.3   1010.8    0.00 
 240    2:50   0.00   60.0    89    6.5   149     8.0   1010.8    0.00 
 240    3:00   0.00   60.3    88    6.3   152     8.3   1010.8    0.00 
 240    3:10   0.00   60.5    87    5.7   142     7.7   1010.8    0.00 
 240    3:20   0.00   60.4    87    5.0   142     7.2   1010.5    0.00 
 240    3:30   0.00   60.0    88    4.7   131     6.4   1010.5    0.00 
 240    3:40   0.00   60.0    88    6.8   136     9.0   1010.2    0.00 
 240    3:50   0.00   59.7    89    7.6   135     9.3   1010.2    0.00 
 240    4:00   0.00   60.1    86    6.6   126     9.2   1009.8    0.00 
 240    4:10   0.00   60.5    84    6.8   134     8.3   1009.8    0.00 
 240    4:20   0.00   60.2    84    6.9   133     8.3   1009.8    0.00 
 240    4:30   0.00   60.0    85    6.3   146     7.4   1009.8    0.00 
 240    4:40   0.00   60.1    82    6.1   145     6.9   1009.8    0.00 
 240    4:50   0.00   60.4    80    6.9   186    10.4   1010.2    0.00 
 240    5:00   0.00   60.7    81    5.5   165    11.8   1010.2    0.00 
 240    5:10   0.00   59.7    85    5.7   299    10.2   1010.5    0.00 
 240    5:20   0.00   58.7    89    6.0   298     9.6   1010.5    0.00 
 240    5:30   0.00   58.8    89    3.3   360     6.1   1010.5    0.00 
 240    5:40   0.00   58.8    89    1.5   133     3.4   1010.5    0.00 
 240    5:50   0.01   59.2    89    1.4   240     4.2   1010.5    0.00 
 240    6:00   0.02   59.1    89    1.3   168     3.4   1010.5    0.00 
 240    6:10   0.02   59.5    89    3.1   174     5.3   1010.5    0.00 
 240    6:20   0.03   59.7    89    4.4   253     6.6   1010.5    0.00 
 240    6:30   0.05   59.8    90    0.9   275     2.9   1010.5    0.00 
 240    6:40   0.06   60.0    90    2.4   293     5.6   1010.5    0.00 
 240    6:50   0.07   59.9    90    4.1   289     5.7   1010.8    0.00 
 240    7:00   0.07   59.9    89    5.2   318     7.9   1010.8    0.00 
 240    7:10   0.09   60.2    89    6.1   308     8.9   1010.8    0.00 
 240    7:20   0.09   60.0    90    7.8   302    10.5   1011.2    0.00 
 240    7:30   0.07   59.4    92    7.0   309    11.2   1011.2    0.00 
 240    7:40   0.13   59.2    93    6.5   302     8.6   1011.2    0.00 
 240    7:50   0.13   59.2    93    4.4   329     6.9   1011.2    0.00 
 240    8:00   0.14   59.6    94    3.1    53     5.6   1010.8    0.00 
 240    8:10   0.19   60.5    93    3.8    97     5.3   1010.8    0.00 
 240    8:20   0.29   61.4    90    4.7   127     8.0   1010.8    0.00 
 240    8:30   0.33   62.5    87    6.8   139     8.5   1010.5    0.00 
 240    8:40   0.34   63.2    84    8.9   143    10.4   1010.5    0.00 
 240    8:50   0.37   63.7    82   10.2   143    11.4   1010.2    0.00 
 240    9:00   0.58   66.0    77   10.0   144    11.5   1010.2    0.00 
 240    9:10   0.45   67.2    74    9.7   144    11.5   1010.2    0.00 
 240    9:20   0.37   67.9    72    9.9   145    12.1   1010.2    0.00 
 240    9:30   0.26   67.9    72    9.3   144    11.5   1010.2    0.00 
 240    9:40   0.45   68.2    71    7.5   144    10.4   1010.2    0.00 
 240    9:50   0.66   71.0    66    7.9   141    10.6   1010.2    0.00 
 240   10:00   0.49   72.0    64    7.3   144     9.9   1010.2    0.00 
 240   10:10   0.59   72.7    61    9.0   211    20.0   1010.5    0.00 
 240   10:20   0.51   71.7    64    6.2   188    16.9   1010.5    0.00 
 240   10:30   0.51   75.4    57    4.1   107     6.6   1010.5    0.00 
 240   10:40   0.41   73.2    61    3.4    53     6.6   1010.5    0.00 
 240   10:50   0.53   69.6    68   10.7   279    20.0   1010.8    0.00 
 240   11:00   0.64   66.5    75    9.7   292    14.6   1010.8    0.00 
 240   11:10   0.81   67.2    74    9.9   323    14.0   1011.2    0.00 
 240   11:20   0.46   68.4    71    5.3     3    10.2   1010.8    0.00 
 240   11:30   0.47   69.9    68    4.4    75     6.6   1010.5    0.00 
 240   11:40   0.55   69.7    68    4.1   122     6.1   1010.2    0.00 
 240   11:50   0.50   69.1    69    3.9   146     5.6   1010.2    0.00 
 240   12:00   0.64   70.7    65    6.4   195    12.2   1010.5    0.00 

Return to Bodega Marine Reserve graphs page.


Western Regional Climate Center,wrcc@dri.edu